createdAt,value
2022-12-25T00:06:25.281Z,100434.80
2022-12-25T00:28:11.084Z,100454.40
2022-12-25T00:49:56.913Z,100470.87
2022-12-25T01:11:42.687Z,100487.36
2022-12-25T01:33:28.323Z,100518.05
2022-12-25T01:55:14.669Z,100532.29
2022-12-25T02:17:08.805Z,100522.84
2022-12-25T02:39:18.330Z,100530.20
2022-12-25T03:01:26.272Z,100554.26
2022-12-25T03:23:31.306Z,100562.34
2022-12-25T03:45:45.265Z,100586.34
2022-12-25T04:07:48.715Z,100607.27
2022-12-25T04:29:52.359Z,100609.48
2022-12-25T04:51:39.379Z,100617.35
2022-12-25T05:13:25.303Z,100627.79
2022-12-25T05:35:12.078Z,100651.55
2022-12-25T05:56:58.192Z,100658.45
2022-12-25T06:18:46.091Z,100671.86
2022-12-25T06:40:31.803Z,100714.27
2022-12-25T07:02:20.820Z,100743.37
2022-12-25T07:24:07.450Z,100741.19
2022-12-25T07:45:57.859Z,100753.88
2022-12-25T08:07:43.791Z,100752.54
2022-12-25T08:29:29.669Z,100763.81
2022-12-25T08:51:17.540Z,100778.95
2022-12-25T09:13:03.215Z,100793.60
2022-12-25T09:34:48.909Z,100801.95
2022-12-25T09:56:36.248Z,100796.41
2022-12-25T10:18:49.191Z,100781.80
2022-12-25T10:40:44.248Z,100767.42
2022-12-25T11:02:35.618Z,100741.38
2022-12-25T11:43:49.651Z,100690.42
2022-12-25T12:05:41.240Z,100688.07
2022-12-25T12:27:35.537Z,100676.80
2022-12-25T12:49:25.707Z,100666.10
2022-12-25T13:11:19.576Z,100670.83
2022-12-25T13:33:06.186Z,100649.23
2022-12-25T13:55:01.553Z,100634.98
2022-12-25T14:16:49.802Z,100610.45
2022-12-25T14:38:36.899Z,100618.51
2022-12-25T15:00:27.603Z,100619.55
2022-12-25T15:22:15.179Z,100603.33
2022-12-25T15:44:00.952Z,100592.91
2022-12-25T16:05:46.764Z,100584.81
2022-12-25T16:27:32.498Z,100565.27
2022-12-25T16:49:18.408Z,100524.29
2022-12-25T17:11:06.744Z,100511.91
2022-12-25T17:32:52.679Z,100503.19
2022-12-25T17:54:39.272Z,100482.83
2022-12-25T18:16:27.177Z,100470.54
2022-12-25T18:38:13.281Z,100433.46
2022-12-25T18:59:58.979Z,100403.45
2022-12-25T19:21:45.597Z,100382.23
2022-12-25T19:43:33.358Z,100349.97
2022-12-25T20:05:19.303Z,100328.90
2022-12-25T20:43:45.096Z,100285.99
2022-12-25T21:05:31.494Z,100259.11
2022-12-25T21:27:17.342Z,100233.27
2022-12-25T21:49:03.100Z,100200.82
2022-12-25T22:10:48.823Z,100214.52
2022-12-25T22:44:16.480Z,100187.09
2022-12-25T23:05:58.353Z,100142.89
2022-12-25T23:27:44.751Z,100122.23
2022-12-25T23:49:31.028Z,100120.43
